sensor_id;sensor_type;location;lat;lon;timestamp;temperature;humidity
23769;DHT22;12064;50.890;5.424;2023-05-16T00:03:19;20.50;88.10
23769;DHT22;12064;50.890;5.424;2023-05-16T00:12:10;20.50;88.20
23769;DHT22;12064;50.890;5.424;2023-05-16T00:21:01;20.50;89.10
23769;DHT22;12064;50.890;5.424;2023-05-16T00:29:51;20.40;88.60
23769;DHT22;12064;50.890;5.424;2023-05-16T00:38:42;20.40;88.80
23769;DHT22;12064;50.890;5.424;2023-05-16T00:47:33;20.40;89.10
23769;DHT22;12064;50.890;5.424;2023-05-16T00:56:24;20.30;89.30
23769;DHT22;12064;50.890;5.424;2023-05-16T01:05:15;20.30;89.60
23769;DHT22;12064;50.890;5.424;2023-05-16T01:14:28;20.30;89.70
23769;DHT22;12064;50.890;5.424;2023-05-16T01:32:27;20.20;90.00
23769;DHT22;12064;50.890;5.424;2023-05-16T01:41:23;20.20;90.10
23769;DHT22;12064;50.890;5.424;2023-05-16T01:50:20;20.10;90.20
23769;DHT22;12064;50.890;5.424;2023-05-16T01:59:14;20.10;90.20
23769;DHT22;12064;50.890;5.424;2023-05-16T02:08:07;20.10;90.20
23769;DHT22;12064;50.890;5.424;2023-05-16T02:16:58;20.10;90.20
23769;DHT22;12064;50.890;5.424;2023-05-16T02:25:48;20.10;90.30
23769;DHT22;12064;50.890;5.424;2023-05-16T02:34:41;20.00;90.40
23769;DHT22;12064;50.890;5.424;2023-05-16T02:43:32;20.00;90.40
23769;DHT22;12064;50.890;5.424;2023-05-16T02:52:23;20.00;90.50
23769;DHT22;12064;50.890;5.424;2023-05-16T03:01:14;19.90;90.50
23769;DHT22;12064;50.890;5.424;2023-05-16T03:10:06;19.90;90.50
23769;DHT22;12064;50.890;5.424;2023-05-16T03:18:56;19.90;90.50
23769;DHT22;12064;50.890;5.424;2023-05-16T03:27:47;19.80;90.60
23769;DHT22;12064;50.890;5.424;2023-05-16T03:36:38;19.80;90.70
23769;DHT22;12064;50.890;5.424;2023-05-16T03:45:30;19.80;90.80
23769;DHT22;12064;50.890;5.424;2023-05-16T03:54:21;19.80;90.90
23769;DHT22;12064;50.890;5.424;2023-05-16T04:03:14;19.70;90.90
23769;DHT22;12064;50.890;5.424;2023-05-16T04:12:06;19.70;90.90
23769;DHT22;12064;50.890;5.424;2023-05-16T04:20:57;19.70;90.90
23769;DHT22;12064;50.890;5.424;2023-05-16T04:29:48;19.70;91.10
23769;DHT22;12064;50.890;5.424;2023-05-16T04:38:38;19.70;91.20
23769;DHT22;12064;50.890;5.424;2023-05-16T04:47:29;19.70;91.30
23769;DHT22;12064;50.890;5.424;2023-05-16T04:56:20;19.70;91.20
23769;DHT22;12064;50.890;5.424;2023-05-16T05:05:11;19.60;91.10
23769;DHT22;12064;50.890;5.424;2023-05-16T05:14:02;19.60;91.00
23769;DHT22;12064;50.890;5.424;2023-05-16T05:22:53;19.60;91.00
23769;DHT22;12064;50.890;5.424;2023-05-16T05:31:46;19.60;91.00
23769;DHT22;12064;50.890;5.424;2023-05-16T05:40:37;19.60;91.00
23769;DHT22;12064;50.890;5.424;2023-05-16T05:49:27;19.60;91.00
23769;DHT22;12064;50.890;5.424;2023-05-16T05:58:20;19.70;90.90
23769;DHT22;12064;50.890;5.424;2023-05-16T06:07:10;19.80;90.80
23769;DHT22;12064;50.890;5.424;2023-05-16T06:16:01;19.80;90.70
23769;DHT22;12064;50.890;5.424;2023-05-16T06:24:52;19.90;90.30
23769;DHT22;12064;50.890;5.424;2023-05-16T06:33:42;19.70;80.30
23769;DHT22;12064;50.890;5.424;2023-05-16T06:42:33;19.80;79.10
23769;DHT22;12064;50.890;5.424;2023-05-16T06:51:24;20.00;82.50
23769;DHT22;12064;50.890;5.424;2023-05-16T07:00:17;20.20;81.40
23769;DHT22;12064;50.890;5.424;2023-05-16T07:09:08;20.20;79.50
23769;DHT22;12064;50.890;5.424;2023-05-16T07:17:59;20.30;79.50
23769;DHT22;12064;50.890;5.424;2023-05-16T07:26:50;20.30;77.70
23769;DHT22;12064;50.890;5.424;2023-05-16T07:35:41;20.20;70.40
23769;DHT22;12064;50.890;5.424;2023-05-16T07:44:31;20.30;74.40
23769;DHT22;12064;50.890;5.424;2023-05-16T07:53:22;20.40;77.50
23769;DHT22;12064;50.890;5.424;2023-05-16T08:02:16;20.40;78.40
23769;DHT22;12064;50.890;5.424;2023-05-16T08:11:06;20.70;76.80
23769;DHT22;12064;50.890;5.424;2023-05-16T08:19:57;20.90;75.10
23769;DHT22;12064;50.890;5.424;2023-05-16T08:28:49;20.90;74.20
23769;DHT22;12064;50.890;5.424;2023-05-16T08:37:40;20.90;74.50
23769;DHT22;12064;50.890;5.424;2023-05-16T08:46:32;20.90;74.30
23769;DHT22;12064;50.890;5.424;2023-05-16T08:55:25;20.70;76.40
23769;DHT22;12064;50.890;5.424;2023-05-16T09:04:18;20.70;76.80
23769;DHT22;12064;50.890;5.424;2023-05-16T09:13:10;20.80;77.20
23769;DHT22;12064;50.890;5.424;2023-05-16T09:22:01;20.70;78.00
23769;DHT22;12064;50.890;5.424;2023-05-16T09:30:55;20.80;76.50
23769;DHT22;12064;50.890;5.424;2023-05-16T09:39:51;20.90;75.00
23769;DHT22;12064;50.890;5.424;2023-05-16T09:48:46;21.10;74.10
23769;DHT22;12064;50.890;5.424;2023-05-16T09:57:37;21.00;73.60
23769;DHT22;12064;50.890;5.424;2023-05-16T10:06:31;20.90;73.50
23769;DHT22;12064;50.890;5.424;2023-05-16T10:15:22;20.80;73.10
23769;DHT22;12064;50.890;5.424;2023-05-16T10:24:18;20.80;74.10
23769;DHT22;12064;50.890;5.424;2023-05-16T10:33:16;20.90;76.60
23769;DHT22;12064;50.890;5.424;2023-05-16T10:42:07;20.90;78.80
23769;DHT22;12064;50.890;5.424;2023-05-16T11:00:21;20.90;79.60
23769;DHT22;12064;50.890;5.424;2023-05-16T11:09:22;21.00;79.60
23769;DHT22;12064;50.890;5.424;2023-05-16T11:18:15;21.00;79.90
23769;DHT22;12064;50.890;5.424;2023-05-16T11:27:06;20.90;80.60
23769;DHT22;12064;50.890;5.424;2023-05-16T11:36:04;20.90;80.00
23769;DHT22;12064;50.890;5.424;2023-05-16T11:45:09;20.90;80.10
23769;DHT22;12064;50.890;5.424;2023-05-16T11:54:02;21.00;79.80
23769;DHT22;12064;50.890;5.424;2023-05-16T12:03:00;21.10;79.70
23769;DHT22;12064;50.890;5.424;2023-05-16T12:11:52;21.00;80.00
23769;DHT22;12064;50.890;5.424;2023-05-16T12:20:43;21.10;80.80
23769;DHT22;12064;50.890;5.424;2023-05-16T12:29:37;21.00;80.20
23769;DHT22;12064;50.890;5.424;2023-05-16T12:38:31;21.10;80.00
23769;DHT22;12064;50.890;5.424;2023-05-16T12:47:34;21.10;80.20
23769;DHT22;12064;50.890;5.424;2023-05-16T12:56:25;21.10;80.10
23769;DHT22;12064;50.890;5.424;2023-05-16T13:05:17;21.10;80.30
23769;DHT22;12064;50.890;5.424;2023-05-16T13:14:08;21.10;80.20
23769;DHT22;12064;50.890;5.424;2023-05-16T13:22:58;21.10;80.30
23769;DHT22;12064;50.890;5.424;2023-05-16T13:31:49;21.00;80.40
23769;DHT22;12064;50.890;5.424;2023-05-16T13:40:41;21.10;80.50
23769;DHT22;12064;50.890;5.424;2023-05-16T13:49:34;21.10;80.60
23769;DHT22;12064;50.890;5.424;2023-05-16T13:58:25;21.10;80.70
23769;DHT22;12064;50.890;5.424;2023-05-16T14:07:16;21.10;80.70
23769;DHT22;12064;50.890;5.424;2023-05-16T14:16:07;21.10;80.60
23769;DHT22;12064;50.890;5.424;2023-05-16T14:24:58;21.10;80.70
23769;DHT22;12064;50.890;5.424;2023-05-16T14:33:48;21.10;80.80
23769;DHT22;12064;50.890;5.424;2023-05-16T14:42:39;21.10;80.70
23769;DHT22;12064;50.890;5.424;2023-05-16T14:51:30;21.10;80.80
23769;DHT22;12064;50.890;5.424;2023-05-16T15:00:25;21.10;80.90
23769;DHT22;12064;50.890;5.424;2023-05-16T15:09:15;21.20;80.70
23769;DHT22;12064;50.890;5.424;2023-05-16T15:18:08;21.10;80.90
23769;DHT22;12064;50.890;5.424;2023-05-16T15:27:00;21.10;81.20
23769;DHT22;12064;50.890;5.424;2023-05-16T15:35:51;21.10;80.80
23769;DHT22;12064;50.890;5.424;2023-05-16T15:44:42;21.10;81.00
23769;DHT22;12064;50.890;5.424;2023-05-16T15:53:32;21.10;81.10
23769;DHT22;12064;50.890;5.424;2023-05-16T16:02:23;21.10;81.10
23769;DHT22;12064;50.890;5.424;2023-05-16T16:11:14;21.10;81.10
23769;DHT22;12064;50.890;5.424;2023-05-16T16:20:05;21.10;81.20
23769;DHT22;12064;50.890;5.424;2023-05-16T16:28:58;21.10;81.20
23769;DHT22;12064;50.890;5.424;2023-05-16T16:37:49;21.10;81.10
23769;DHT22;12064;50.890;5.424;2023-05-16T16:46:40;21.10;81.20
23769;DHT22;12064;50.890;5.424;2023-05-16T16:55:31;21.10;81.30
23769;DHT22;12064;50.890;5.424;2023-05-16T17:04:22;21.10;81.30
23769;DHT22;12064;50.890;5.424;2023-05-16T17:13:15;21.10;81.40
23769;DHT22;12064;50.890;5.424;2023-05-16T17:22:07;21.10;81.20
23769;DHT22;12064;50.890;5.424;2023-05-16T17:30:58;21.20;81.10
23769;DHT22;12064;50.890;5.424;2023-05-16T17:39:49;21.20;81.10
23769;DHT22;12064;50.890;5.424;2023-05-16T17:48:42;21.20;81.10
23769;DHT22;12064;50.890;5.424;2023-05-16T17:57:33;21.10;81.10
23769;DHT22;12064;50.890;5.424;2023-05-16T18:06:24;21.10;78.30
23769;DHT22;12064;50.890;5.424;2023-05-16T18:15:14;20.90;77.30
23769;DHT22;12064;50.890;5.424;2023-05-16T18:24:05;21.10;80.10
23769;DHT22;12064;50.890;5.424;2023-05-16T18:32:58;21.10;80.60
23769;DHT22;12064;50.890;5.424;2023-05-16T18:41:49;21.10;80.90
23769;DHT22;12064;50.890;5.424;2023-05-16T18:50:39;21.10;81.10
23769;DHT22;12064;50.890;5.424;2023-05-16T18:59:30;21.00;81.10
23769;DHT22;12064;50.890;5.424;2023-05-16T19:08:21;21.00;81.30
23769;DHT22;12064;50.890;5.424;2023-05-16T19:17:13;20.90;81.40
23769;DHT22;12064;50.890;5.424;2023-05-16T19:26:03;21.00;81.70
23769;DHT22;12064;50.890;5.424;2023-05-16T19:34:54;20.90;81.70
23769;DHT22;12064;50.890;5.424;2023-05-16T19:43:44;20.90;81.70
23769;DHT22;12064;50.890;5.424;2023-05-16T19:52:35;20.90;81.90
23769;DHT22;12064;50.890;5.424;2023-05-16T20:01:26;20.90;82.00
23769;DHT22;12064;50.890;5.424;2023-05-16T20:10:18;20.90;82.10
23769;DHT22;12064;50.890;5.424;2023-05-16T20:19:11;20.80;82.30
23769;DHT22;12064;50.890;5.424;2023-05-16T20:28:03;20.80;82.30
23769;DHT22;12064;50.890;5.424;2023-05-16T20:36:53;20.80;82.20
23769;DHT22;12064;50.890;5.424;2023-05-16T20:45:44;20.70;82.50
23769;DHT22;12064;50.890;5.424;2023-05-16T20:54:34;20.70;82.50
23769;DHT22;12064;50.890;5.424;2023-05-16T21:03:25;20.70;82.60
23769;DHT22;12064;50.890;5.424;2023-05-16T21:12:17;20.70;82.80
23769;DHT22;12064;50.890;5.424;2023-05-16T21:21:09;20.70;83.00
23769;DHT22;12064;50.890;5.424;2023-05-16T21:29:59;20.60;83.10
23769;DHT22;12064;50.890;5.424;2023-05-16T21:38:50;20.60;83.10
23769;DHT22;12064;50.890;5.424;2023-05-16T21:47:43;20.60;83.30
23769;DHT22;12064;50.890;5.424;2023-05-16T21:56:34;20.50;83.40
23769;DHT22;12064;50.890;5.424;2023-05-16T22:05:25;20.50;83.60
23769;DHT22;12064;50.890;5.424;2023-05-16T22:14:18;20.50;83.80
23769;DHT22;12064;50.890;5.424;2023-05-16T22:23:09;20.50;84.10
23769;DHT22;12064;50.890;5.424;2023-05-16T22:32:00;20.40;84.20
23769;DHT22;12064;50.890;5.424;2023-05-16T22:40:51;20.40;84.40
23769;DHT22;12064;50.890;5.424;2023-05-16T22:49:41;20.30;84.60
23769;DHT22;12064;50.890;5.424;2023-05-16T22:58:33;20.30;84.60
23769;DHT22;12064;50.890;5.424;2023-05-16T23:07:23;20.30;84.90
23769;DHT22;12064;50.890;5.424;2023-05-16T23:16:14;20.20;85.10
23769;DHT22;12064;50.890;5.424;2023-05-16T23:25:05;20.20;85.10
23769;DHT22;12064;50.890;5.424;2023-05-16T23:33:56;20.20;85.10
23769;DHT22;12064;50.890;5.424;2023-05-16T23:42:47;20.20;85.10
23769;DHT22;12064;50.890;5.424;2023-05-16T23:51:37;20.10;85.10
